sensor_id;sensor_type;location;lat;lon;timestamp;pressure;altitude;pressure_sealevel;temperature;humidity
51287;BME280;37364;46.974;18.916;2023-03-21T00:02:02;152126.63;;;7.06;100.00
51287;BME280;37364;46.974;18.916;2023-03-21T00:04:33;152118.84;;;7.03;100.00
51287;BME280;37364;46.974;18.916;2023-03-21T00:07:16;152164.03;;;7.21;100.00
51287;BME280;37364;46.974;18.916;2023-03-21T00:09:47;152184.69;;;7.29;100.00
51287;BME280;37364;46.974;18.916;2023-03-21T00:12:18;152187.31;;;7.30;100.00
51287;BME280;37364;46.974;18.916;2023-03-21T00:14:50;152170.53;;;7.23;100.00
51287;BME280;37364;46.974;18.916;2023-03-21T00:17:23;152229.94;;;7.47;100.00
51287;BME280;37364;46.974;18.916;2023-03-21T00:19:58;152233.78;;;7.48;100.00
51287;BME280;37364;46.974;18.916;2023-03-21T00:22:33;152244.13;;;7.52;100.00
51287;BME280;37364;46.974;18.916;2023-03-21T00:25:05;152270.00;;;7.63;100.00
51287;BME280;37364;46.974;18.916;2023-03-21T00:27:36;152264.84;;;7.61;100.00
51287;BME280;37364;46.974;18.916;2023-03-21T00:30:29;152237.69;;;7.50;100.00
51287;BME280;37364;46.974;18.916;2023-03-21T00:33:00;152202.81;;;7.36;100.00
51287;BME280;37364;46.974;18.916;2023-03-21T00:35:49;152193.75;;;7.32;100.00
51287;BME280;37364;46.974;18.916;2023-03-21T00:38:33;152192.47;;;7.32;100.00
51287;BME280;37364;46.974;18.916;2023-03-21T00:41:03;152186.03;;;7.29;100.00
51287;BME280;37364;46.974;18.916;2023-03-21T00:43:50;152170.53;;;7.23;100.00
51287;BME280;37364;46.974;18.916;2023-03-21T00:46:24;152184.69;;;7.29;100.00
51287;BME280;37364;46.974;18.916;2023-03-21T00:49:08;152169.22;;;7.23;100.00
51287;BME280;37364;46.974;18.916;2023-03-21T00:51:40;152156.31;;;7.18;100.00
51287;BME280;37364;46.974;18.916;2023-03-21T00:54:11;152153.72;;;7.17;100.00
51287;BME280;37364;46.974;18.916;2023-03-21T00:56:41;152152.44;;;7.16;100.00
51287;BME280;37364;46.974;18.916;2023-03-21T00:59:11;152146.00;;;7.13;100.00
51287;BME280;37364;46.974;18.916;2023-03-21T01:01:45;152146.00;;;7.13;100.00
51287;BME280;37364;46.974;18.916;2023-03-21T01:04:15;152134.34;;;7.09;100.00
51287;BME280;37364;46.974;18.916;2023-03-21T01:06:46;152129.19;;;7.07;100.00
51287;BME280;37364;46.974;18.916;2023-03-21T01:09:19;152114.97;;;7.01;100.00
51287;BME280;37364;46.974;18.916;2023-03-21T01:11:50;152107.25;;;6.98;100.00
51287;BME280;37364;46.974;18.916;2023-03-21T01:14:22;152098.19;;;6.95;100.00
51287;BME280;37364;46.974;18.916;2023-03-21T01:16:55;152091.75;;;6.92;100.00
51287;BME280;37364;46.974;18.916;2023-03-21T01:19:25;152080.09;;;6.87;100.00
51287;BME280;37364;46.974;18.916;2023-03-21T01:22:16;152077.53;;;6.86;100.00
51287;BME280;37364;46.974;18.916;2023-03-21T01:24:47;152063.34;;;6.81;100.00
51287;BME280;37364;46.974;18.916;2023-03-21T01:27:26;152046.53;;;6.74;100.00
51287;BME280;37364;46.974;18.916;2023-03-21T01:29:56;152071.06;;;6.84;100.00
51287;BME280;37364;46.974;18.916;2023-03-21T01:32:29;152062.06;;;6.80;100.00
51287;BME280;37364;46.974;18.916;2023-03-21T01:34:59;152074.94;;;6.85;100.00
51287;BME280;37364;46.974;18.916;2023-03-21T01:37:30;152060.72;;;6.80;100.00
51287;BME280;37364;46.974;18.916;2023-03-21T01:40:00;152073.66;;;6.85;100.00
51287;BME280;37364;46.974;18.916;2023-03-21T01:42:31;152067.22;;;6.82;100.00
51287;BME280;37364;46.974;18.916;2023-03-21T01:45:04;152056.84;;;6.78;100.00
51287;BME280;37364;46.974;18.916;2023-03-21T01:47:43;152073.66;;;6.85;100.00
51287;BME280;37364;46.974;18.916;2023-03-21T01:50:21;152022.00;;;6.64;100.00
51287;BME280;37364;46.974;18.916;2023-03-21T01:53:09;152037.53;;;6.70;100.00
51287;BME280;37364;46.974;18.916;2023-03-21T01:55:40;152034.91;;;6.69;100.00
51287;BME280;37364;46.974;18.916;2023-03-21T01:58:20;152010.41;;;6.60;100.00
51287;BME280;37364;46.974;18.916;2023-03-21T02:01:17;152032.38;;;6.68;100.00
51287;BME280;37364;46.974;18.916;2023-03-21T02:03:55;152036.19;;;6.70;100.00
51287;BME280;37364;46.974;18.916;2023-03-21T02:06:45;151997.47;;;6.54;100.00
51287;BME280;37364;46.974;18.916;2023-03-21T02:09:37;151985.88;;;6.50;100.00
51287;BME280;37364;46.974;18.916;2023-03-21T02:12:15;151943.25;;;6.33;100.00
51287;BME280;37364;46.974;18.916;2023-03-21T02:14:47;151960.06;;;6.40;100.00
51287;BME280;37364;46.974;18.916;2023-03-21T02:17:28;151944.56;;;6.33;100.00
51287;BME280;37364;46.974;18.916;2023-03-21T02:20:30;151960.06;;;6.40;100.00
51287;BME280;37364;46.974;18.916;2023-03-21T02:23:30;151917.44;;;6.23;100.00
51287;BME280;37364;46.974;18.916;2023-03-21T02:29:31;151909.72;;;6.20;100.00
51287;BME280;37364;46.974;18.916;2023-03-21T02:32:11;151954.91;;;6.38;100.00
51287;BME280;37364;46.974;18.916;2023-03-21T02:35:14;151967.78;;;6.43;100.00
51287;BME280;37364;46.974;18.916;2023-03-21T02:37:56;151965.22;;;6.42;100.00
51287;BME280;37364;46.974;18.916;2023-03-21T02:40:32;151965.22;;;6.42;100.00
51287;BME280;37364;46.974;18.916;2023-03-21T02:43:10;151969.09;;;6.43;100.00
51287;BME280;37364;46.974;18.916;2023-03-21T02:45:53;151984.59;;;6.49;100.00
51287;BME280;37364;46.974;18.916;2023-03-21T02:48:31;152105.91;;;6.98;100.00
51287;BME280;37364;46.974;18.916;2023-03-21T02:51:19;152175.69;;;7.25;100.00
51287;BME280;37364;46.974;18.916;2023-03-21T02:53:57;152229.94;;;7.47;100.00
51287;BME280;37364;46.974;18.916;2023-03-21T02:56:52;152341.03;;;7.91;100.00
51287;BME280;37364;46.974;18.916;2023-03-21T02:59:26;152377.22;;;8.05;100.00
51287;BME280;37364;46.974;18.916;2023-03-21T03:02:02;152408.25;;;8.18;100.00
51287;BME280;37364;46.974;18.916;2023-03-21T03:04:33;152386.25;;;8.09;100.00
51287;BME280;37364;46.974;18.916;2023-03-21T03:07:14;152403.09;;;8.16;100.00
51287;BME280;37364;46.974;18.916;2023-03-21T03:10:05;152438.00;;;8.29;100.00
51287;BME280;37364;46.974;18.916;2023-03-21T03:12:46;152485.84;;;8.48;100.00
51287;BME280;37364;46.974;18.916;2023-03-21T03:15:26;152523.34;;;8.63;100.00
51287;BME280;37364;46.974;18.916;2023-03-21T03:18:09;152533.69;;;8.67;100.00
51287;BME280;37364;46.974;18.916;2023-03-21T03:20:51;152528.50;;;8.65;100.00
51287;BME280;37364;46.974;18.916;2023-03-21T03:23:27;152538.84;;;8.69;100.00
51287;BME280;37364;46.974;18.916;2023-03-21T03:26:04;152542.75;;;8.71;100.00
51287;BME280;37364;46.974;18.916;2023-03-21T03:28:40;152534.97;;;8.68;100.00
51287;BME280;37364;46.974;18.916;2023-03-21T03:31:18;152541.47;;;8.70;100.00
51287;BME280;37364;46.974;18.916;2023-03-21T03:34:00;152522.06;;;8.63;100.00
51287;BME280;37364;46.974;18.916;2023-03-21T03:36:39;152515.56;;;8.60;100.00
51287;BME280;37364;46.974;18.916;2023-03-21T03:39:14;152519.47;;;8.62;100.00
51287;BME280;37364;46.974;18.916;2023-03-21T03:42:00;152518.19;;;8.61;100.00
51287;BME280;37364;46.974;18.916;2023-03-21T03:44:57;152532.41;;;8.67;100.00
51287;BME280;37364;46.974;18.916;2023-03-21T03:47:32;152522.06;;;8.63;100.00
51287;BME280;37364;46.974;18.916;2023-03-21T03:50:20;152507.84;;;8.57;100.00
51287;BME280;37364;46.974;18.916;2023-03-21T03:52:59;152502.66;;;8.55;100.00
51287;BME280;37364;46.974;18.916;2023-03-21T03:55:44;152475.50;;;8.44;100.00
51287;BME280;37364;46.974;18.916;2023-03-21T03:58:20;152457.38;;;8.37;100.00
51287;BME280;37364;46.974;18.916;2023-03-21T04:01:09;152470.31;;;8.42;100.00
51287;BME280;37364;46.974;18.916;2023-03-21T04:03:42;152444.44;;;8.32;100.00
51287;BME280;37364;46.974;18.916;2023-03-21T04:06:20;152458.66;;;8.38;100.00
51287;BME280;37364;46.974;18.916;2023-03-21T04:08:51;152479.38;;;8.46;100.00
51287;BME280;37364;46.974;18.916;2023-03-21T04:11:22;152470.31;;;8.42;100.00
51287;BME280;37364;46.974;18.916;2023-03-21T04:13:57;152447.03;;;8.33;100.00
51287;BME280;37364;46.974;18.916;2023-03-21T04:16:28;152414.72;;;8.20;100.00
51287;BME280;37364;46.974;18.916;2023-03-21T04:19:02;152406.94;;;8.17;100.00
51287;BME280;37364;46.974;18.916;2023-03-21T04:21:32;152394.03;;;8.12;100.00
51287;BME280;37364;46.974;18.916;2023-03-21T04:24:03;152364.31;;;8.00;100.00
51287;BME280;37364;46.974;18.916;2023-03-21T04:26:34;152396.59;;;8.13;100.00
51287;BME280;37364;46.974;18.916;2023-03-21T04:29:26;152406.94;;;8.17;100.00
51287;BME280;37364;46.974;18.916;2023-03-21T04:32:29;152388.88;;;8.10;100.00
51287;BME280;37364;46.974;18.916;2023-03-21T04:35:09;152395.31;;;8.12;100.00
51287;BME280;37364;46.974;18.916;2023-03-21T04:37:40;152360.44;;;7.99;100.00
51287;BME280;37364;46.974;18.916;2023-03-21T04:40:13;152319.09;;;7.82;100.00
51287;BME280;37364;46.974;18.916;2023-03-21T04:42:44;152280.31;;;7.67;100.00
51287;BME280;37364;46.974;18.916;2023-03-21T04:45:18;152272.56;;;7.64;100.00
51287;BME280;37364;46.974;18.916;2023-03-21T04:47:48;152262.22;;;7.60;100.00
51287;BME280;37364;46.974;18.916;2023-03-21T04:50:19;152255.78;;;7.57;100.00
51287;BME280;37364;46.974;18.916;2023-03-21T04:52:49;152255.78;;;7.57;100.00
51287;BME280;37364;46.974;18.916;2023-03-21T04:55:19;152266.09;;;7.61;100.00
51287;BME280;37364;46.974;18.916;2023-03-21T04:57:52;152325.53;;;7.85;100.00
51287;BME280;37364;46.974;18.916;2023-03-21T05:00:25;152342.31;;;7.91;100.00
51287;BME280;37364;46.974;18.916;2023-03-21T05:02:55;152326.81;;;7.85;100.00
51287;BME280;37364;46.974;18.916;2023-03-21T05:05:26;152308.75;;;7.78;100.00
51287;BME280;37364;46.974;18.916;2023-03-21T05:07:57;152326.81;;;7.85;100.00
51287;BME280;37364;46.974;18.916;2023-03-21T05:10:28;152395.31;;;8.12;100.00
51287;BME280;37364;46.974;18.916;2023-03-21T05:12:58;152417.31;;;8.21;100.00
51287;BME280;37364;46.974;18.916;2023-03-21T05:15:33;152450.88;;;8.35;100.00
51287;BME280;37364;46.974;18.916;2023-03-21T05:18:04;152443.16;;;8.31;100.00
51287;BME280;37364;46.974;18.916;2023-03-21T05:20:56;152436.66;;;8.29;100.00
51287;BME280;37364;46.974;18.916;2023-03-21T05:23:26;152457.38;;;8.37;100.00
51287;BME280;37364;46.974;18.916;2023-03-21T05:25:58;152428.94;;;8.26;100.00
51287;BME280;37364;46.974;18.916;2023-03-21T05:28:37;152405.66;;;8.17;100.00
51287;BME280;37364;46.974;18.916;2023-03-21T05:31:10;152374.66;;;8.04;100.00
51287;BME280;37364;46.974;18.916;2023-03-21T05:33:44;152375.94;;;8.05;100.00
51287;BME280;37364;46.974;18.916;2023-03-21T05:36:17;152386.25;;;8.09;100.00
51287;BME280;37364;46.974;18.916;2023-03-21T05:38:47;152377.22;;;8.05;100.00
51287;BME280;37364;46.974;18.916;2023-03-21T05:41:18;152391.44;;;8.11;100.00
51287;BME280;37364;46.974;18.916;2023-03-21T05:43:48;152390.16;;;8.10;100.00
51287;BME280;37364;46.974;18.916;2023-03-21T05:46:21;152399.22;;;8.14;100.00
51287;BME280;37364;46.974;18.916;2023-03-21T05:48:51;152399.22;;;8.14;100.00
51287;BME280;37364;46.974;18.916;2023-03-21T05:51:22;152426.31;;;8.25;100.00
51287;BME280;37364;46.974;18.916;2023-03-21T05:53:53;152463.84;;;8.40;100.00
51287;BME280;37364;46.974;18.916;2023-03-21T05:56:23;152522.06;;;8.63;100.00
51287;BME280;37364;46.974;18.916;2023-03-21T05:59:01;152515.56;;;8.60;100.00
51287;BME280;37364;46.974;18.916;2023-03-21T06:01:39;152577.66;;;8.85;100.00
51287;BME280;37364;46.974;18.916;2023-03-21T06:04:14;152613.84;;;8.99;100.00
51287;BME280;37364;46.974;18.916;2023-03-21T06:06:44;152637.13;;;9.08;100.00
51287;BME280;37364;46.974;18.916;2023-03-21T06:09:14;152656.53;;;9.16;100.00
51287;BME280;37364;46.974;18.916;2023-03-21T06:11:53;152648.75;;;9.13;100.00
51287;BME280;37364;46.974;18.916;2023-03-21T06:14:50;152639.75;;;9.09;100.00
51287;BME280;37364;46.974;18.916;2023-03-21T06:17:30;152678.50;;;9.25;100.00
51287;BME280;37364;46.974;18.916;2023-03-21T06:20:07;152762.59;;;9.58;100.00
51287;BME280;37364;46.974;18.916;2023-03-21T06:22:48;152853.22;;;9.94;100.00
51287;BME280;37364;46.974;18.916;2023-03-21T06:25:18;152904.97;;;10.15;100.00
51287;BME280;37364;46.974;18.916;2023-03-21T06:27:49;152888.16;;;10.08;100.00
51287;BME280;37364;46.974;18.916;2023-03-21T06:30:20;152860.94;;;9.97;100.00
51287;BME280;37364;46.974;18.916;2023-03-21T06:33:15;152850.59;;;9.93;100.00
51287;BME280;37364;46.974;18.916;2023-03-21T06:35:50;152937.34;;;10.27;100.00
51287;BME280;37364;46.974;18.916;2023-03-21T06:38:22;153002.09;;;10.53;100.00
51287;BME280;37364;46.974;18.916;2023-03-21T06:40:53;153028.00;;;10.63;100.00
51287;BME280;37364;46.974;18.916;2023-03-21T06:43:25;153077.19;;;10.83;100.00
51287;BME280;37364;46.974;18.916;2023-03-21T06:45:55;153123.81;;;11.01;100.00
51287;BME280;37364;46.974;18.916;2023-03-21T06:48:28;153197.63;;;11.31;100.00
51287;BME280;37364;46.974;18.916;2023-03-21T06:50:59;153261.13;;;11.56;100.00
51287;BME280;37364;46.974;18.916;2023-03-21T06:53:32;153294.81;;;11.69;100.00
51287;BME280;37364;46.974;18.916;2023-03-21T06:56:17;153355.75;;;11.93;100.00
51287;BME280;37364;46.974;18.916;2023-03-21T06:58:47;153362.28;;;11.96;100.00
51287;BME280;37364;46.974;18.916;2023-03-21T07:01:40;153446.53;;;12.29;100.00
51287;BME280;37364;46.974;18.916;2023-03-21T07:04:12;153543.72;;;12.68;100.00
51287;BME280;37364;46.974;18.916;2023-03-21T07:06:43;153530.78;;;12.62;100.00
51287;BME280;37364;46.974;18.916;2023-03-21T07:09:13;153481.50;;;12.43;100.00
51287;BME280;37364;46.974;18.916;2023-03-21T07:11:44;153424.47;;;12.20;100.00
51287;BME280;37364;46.974;18.916;2023-03-21T07:14:16;153423.16;;;12.20;100.00
51287;BME280;37364;46.974;18.916;2023-03-21T07:16:47;153450.38;;;12.31;100.00
51287;BME280;37364;46.974;18.916;2023-03-21T07:19:20;153478.91;;;12.42;100.00
51287;BME280;37364;46.974;18.916;2023-03-21T07:21:50;153462.06;;;12.35;100.00
51287;BME280;37364;46.974;18.916;2023-03-21T07:24:20;153510.00;;;12.54;100.00
51287;BME280;37364;46.974;18.916;2023-03-21T07:26:50;153403.72;;;12.12;100.00
51287;BME280;37364;46.974;18.916;2023-03-21T07:29:20;153410.19;;;12.15;100.00
51287;BME280;37364;46.974;18.916;2023-03-21T07:31:51;153407.63;;;12.14;100.00
51287;BME280;37364;46.974;18.916;2023-03-21T07:34:24;153450.38;;;12.31;100.00
51287;BME280;37364;46.974;18.916;2023-03-21T07:37:02;153497.06;;;12.49;100.00
51287;BME280;37364;46.974;18.916;2023-03-21T07:39:33;153660.47;;;13.14;100.00
51287;BME280;37364;46.974;18.916;2023-03-21T07:42:04;153696.75;;;13.28;100.00
51287;BME280;37364;46.974;18.916;2023-03-21T07:44:59;153766.84;;;13.56;100.00
51287;BME280;37364;46.974;18.916;2023-03-21T07:47:33;153844.72;;;13.87;100.00
51287;BME280;37364;46.974;18.916;2023-03-21T07:50:06;153859.00;;;13.92;100.00
51287;BME280;37364;46.974;18.916;2023-03-21T07:52:37;153877.13;;;13.99;100.00
51287;BME280;37364;46.974;18.916;2023-03-21T07:55:08;153884.94;;;14.02;100.00
51287;BME280;37364;46.974;18.916;2023-03-21T07:57:38;153839.53;;;13.84;100.00
51287;BME280;37364;46.974;18.916;2023-03-21T08:00:09;153807.06;;;13.72;100.00
51287;BME280;37364;46.974;18.916;2023-03-21T08:02:50;153761.66;;;13.54;100.00
51287;BME280;37364;46.974;18.916;2023-03-21T08:05:29;153742.22;;;13.46;100.00
51287;BME280;37364;46.974;18.916;2023-03-21T08:08:03;153733.13;;;13.42;100.00
51287;BME280;37364;46.974;18.916;2023-03-21T08:10:33;153835.63;;;13.83;100.00
51287;BME280;37364;46.974;18.916;2023-03-21T08:13:04;153847.28;;;13.88;100.00
51287;BME280;37364;46.974;18.916;2023-03-21T08:15:34;153852.47;;;13.90;100.00
51287;BME280;37364;46.974;18.916;2023-03-21T08:18:06;153874.56;;;13.98;100.00
51287;BME280;37364;46.974;18.916;2023-03-21T08:20:39;153913.50;;;14.14;100.00
51287;BME280;37364;46.974;18.916;2023-03-21T08:23:09;153912.22;;;14.13;100.00
51287;BME280;37364;46.974;18.916;2023-03-21T08:25:39;153940.75;;;14.24;100.00
51287;BME280;37364;46.974;18.916;2023-03-21T08:28:09;154004.38;;;14.50;100.00
51287;BME280;37364;46.974;18.916;2023-03-21T08:30:40;154056.38;;;14.70;100.00
51287;BME280;37364;46.974;18.916;2023-03-21T08:33:10;154130.38;;;14.99;100.00
51287;BME280;37364;46.974;18.916;2023-03-21T08:35:43;154070.63;;;14.76;100.00
51287;BME280;37364;46.974;18.916;2023-03-21T08:38:14;154190.13;;;15.23;99.74
51287;BME280;37364;46.974;18.916;2023-03-21T08:40:44;154151.16;;;15.08;99.66
51287;BME280;37364;46.974;18.916;2023-03-21T08:43:14;154181.03;;;15.19;97.62
51287;BME280;37364;46.974;18.916;2023-03-21T08:45:44;154118.66;;;14.95;98.74
51287;BME280;37364;46.974;18.916;2023-03-21T08:48:14;154140.78;;;15.03;99.40
51287;BME280;37364;46.974;18.916;2023-03-21T08:50:47;154118.66;;;14.95;99.53
51287;BME280;37364;46.974;18.916;2023-03-21T08:53:17;154239.44;;;15.42;94.84
51287;BME280;37364;46.974;18.916;2023-03-21T08:55:48;154316.19;;;15.73;91.67
51287;BME280;37364;46.974;18.916;2023-03-21T08:58:18;154398.00;;;16.05;92.07
51287;BME280;37364;46.974;18.916;2023-03-21T09:00:48;154300.53;;;15.67;91.69
51287;BME280;37364;46.974;18.916;2023-03-21T09:03:19;154273.22;;;15.56;90.55
51287;BME280;37364;46.974;18.916;2023-03-21T09:05:54;154353.88;;;15.88;89.58
51287;BME280;37364;46.974;18.916;2023-03-21T09:08:25;154430.53;;;16.18;90.94
51287;BME280;37364;46.974;18.916;2023-03-21T09:10:55;154424.03;;;16.15;84.55
51287;BME280;37364;46.974;18.916;2023-03-21T09:13:26;154305.72;;;15.69;87.95
51287;BME280;37364;46.974;18.916;2023-03-21T09:15:56;154256.38;;;15.49;87.22
51287;BME280;37364;46.974;18.916;2023-03-21T09:18:27;154134.25;;;15.01;86.87
51287;BME280;37364;46.974;18.916;2023-03-21T09:21:14;154173.22;;;15.16;85.25
51287;BME280;37364;46.974;18.916;2023-03-21T09:23:44;154243.34;;;15.44;85.92
51287;BME280;37364;46.974;18.916;2023-03-21T09:26:16;154239.44;;;15.42;86.93
51287;BME280;37364;46.974;18.916;2023-03-21T09:28:46;154248.53;;;15.46;84.58
51287;BME280;37364;46.974;18.916;2023-03-21T09:31:17;154240.78;;;15.43;85.62
51287;BME280;37364;46.974;18.916;2023-03-21T09:33:48;154213.47;;;15.32;83.87
51287;BME280;37364;46.974;18.916;2023-03-21T09:36:21;154258.94;;;15.50;83.23
51287;BME280;37364;46.974;18.916;2023-03-21T09:38:53;154231.69;;;15.39;82.47
51287;BME280;37364;46.974;18.916;2023-03-21T09:41:34;154177.13;;;15.18;80.66
51287;BME280;37364;46.974;18.916;2023-03-21T09:44:18;154178.41;;;15.18;83.97
51287;BME280;37364;46.974;18.916;2023-03-21T09:46:57;154214.81;;;15.33;82.17
51287;BME280;37364;46.974;18.916;2023-03-21T09:49:33;154274.56;;;15.56;81.97
51287;BME280;37364;46.974;18.916;2023-03-21T09:52:16;154205.72;;;15.29;81.97
51287;BME280;37364;46.974;18.916;2023-03-21T09:54:48;154411.03;;;16.10;79.36
51287;BME280;37364;46.974;18.916;2023-03-21T09:57:28;154578.72;;;16.76;77.79
51287;BME280;37364;46.974;18.916;2023-03-21T10:00:03;154779.03;;;17.55;77.32
51287;BME280;37364;46.974;18.916;2023-03-21T10:02:45;154678.88;;;17.16;74.97
51287;BME280;37364;46.974;18.916;2023-03-21T10:05:20;154820.66;;;17.72;72.60
51287;BME280;37364;46.974;18.916;2023-03-21T10:07:57;154730.88;;;17.36;70.38
51287;BME280;37364;46.974;18.916;2023-03-21T10:10:34;154659.38;;;17.08;70.17
51287;BME280;37364;46.974;18.916;2023-03-21T10:13:10;154658.09;;;17.08;68.61
51287;BME280;37364;46.974;18.916;2023-03-21T10:15:42;154606.06;;;16.87;68.58
51287;BME280;37364;46.974;18.916;2023-03-21T10:18:19;154658.09;;;17.08;68.60
51287;BME280;37364;46.974;18.916;2023-03-21T10:20:51;154626.84;;;16.95;67.82
51287;BME280;37364;46.974;18.916;2023-03-21T10:23:26;154630.75;;;16.97;70.52
51287;BME280;37364;46.974;18.916;2023-03-21T10:26:00;154593.09;;;16.82;71.32
51287;BME280;37364;46.974;18.916;2023-03-21T10:28:32;154617.78;;;16.92;69.90
51287;BME280;37364;46.974;18.916;2023-03-21T10:31:20;154551.41;;;16.66;67.48
51287;BME280;37364;46.974;18.916;2023-03-21T10:33:55;154593.09;;;16.82;69.25
51287;BME280;37364;46.974;18.916;2023-03-21T10:36:29;154767.34;;;17.51;67.67
51287;BME280;37364;46.974;18.916;2023-03-21T10:39:05;154628.19;;;16.96;67.40
51287;BME280;37364;46.974;18.916;2023-03-21T10:41:35;154671.06;;;17.13;67.33
51287;BME280;37364;46.974;18.916;2023-03-21T10:44:08;154721.81;;;17.33;68.85
51287;BME280;37364;46.974;18.916;2023-03-21T10:46:49;154624.28;;;16.94;64.22
51287;BME280;37364;46.974;18.916;2023-03-21T10:49:20;154616.44;;;16.91;61.30
51287;BME280;37364;46.974;18.916;2023-03-21T10:51:54;154702.31;;;17.25;62.03
51287;BME280;37364;46.974;18.916;2023-03-21T10:54:30;154715.28;;;17.30;61.66
51287;BME280;37364;46.974;18.916;2023-03-21T10:57:04;154741.34;;;17.41;61.92
51287;BME280;37364;46.974;18.916;2023-03-21T10:59:35;154569.63;;;16.73;61.16
51287;BME280;37364;46.974;18.916;2023-03-21T11:02:16;154509.81;;;16.49;64.51
51287;BME280;37364;46.974;18.916;2023-03-21T11:04:47;154498.13;;;16.45;66.39
51287;BME280;37364;46.974;18.916;2023-03-21T11:07:19;154550.09;;;16.65;66.99
51287;BME280;37364;46.974;18.916;2023-03-21T11:09:57;154580.00;;;16.77;67.38
51287;BME280;37364;46.974;18.916;2023-03-21T11:12:30;154651.56;;;17.05;66.39
51287;BME280;37364;46.974;18.916;2023-03-21T11:15:24;154632.09;;;16.97;64.68
51287;BME280;37364;46.974;18.916;2023-03-21T11:17:55;154714.00;;;17.30;65.49
51287;BME280;37364;46.974;18.916;2023-03-21T11:20:29;154587.84;;;16.80;62.71
51287;BME280;37364;46.974;18.916;2023-03-21T11:23:01;154650.28;;;17.05;62.19
51287;BME280;37364;46.974;18.916;2023-03-21T11:25:36;154707.50;;;17.27;61.55
51287;BME280;37364;46.974;18.916;2023-03-21T11:28:11;154699.69;;;17.24;61.71
51287;BME280;37364;46.974;18.916;2023-03-21T11:30:51;154678.88;;;17.16;61.15
51287;BME280;37364;46.974;18.916;2023-03-21T11:33:25;154724.41;;;17.34;61.51
51287;BME280;37364;46.974;18.916;2023-03-21T11:36:02;154743.91;;;17.42;60.05
51287;BME280;37364;46.974;18.916;2023-03-21T11:38:36;154818.06;;;17.71;60.18
51287;BME280;37364;46.974;18.916;2023-03-21T11:41:21;154710.09;;;17.28;61.11
51287;BME280;37364;46.974;18.916;2023-03-21T11:43:52;154753.03;;;17.45;60.42
51287;BME280;37364;46.974;18.916;2023-03-21T11:46:24;154684.09;;;17.18;60.43
51287;BME280;37364;46.974;18.916;2023-03-21T11:48:56;154764.72;;;17.50;63.29
51287;BME280;37364;46.974;18.916;2023-03-21T11:51:31;154855.88;;;17.86;61.09
51287;BME280;37364;46.974;18.916;2023-03-21T11:54:10;154896.19;;;18.02;59.86
51287;BME280;37364;46.974;18.916;2023-03-21T11:56:46;154785.53;;;17.58;58.35
51287;BME280;37364;46.974;18.916;2023-03-21T11:59:23;154720.50;;;17.32;59.59
51287;BME280;37364;46.974;18.916;2023-03-21T12:02:04;154814.16;;;17.69;59.43
51287;BME280;37364;46.974;18.916;2023-03-21T12:04:40;154733.50;;;17.37;60.12
51287;BME280;37364;46.974;18.916;2023-03-21T12:07:21;154680.19;;;17.16;60.74
51287;BME280;37364;46.974;18.916;2023-03-21T12:10:06;154564.41;;;16.71;62.68
51287;BME280;37364;46.974;18.916;2023-03-21T12:12:49;154502.00;;;16.46;61.69
51287;BME280;37364;46.974;18.916;2023-03-21T12:15:28;154509.81;;;16.49;61.15
51287;BME280;37364;46.974;18.916;2023-03-21T12:18:05;154583.91;;;16.78;59.47
51287;BME280;37364;46.974;18.916;2023-03-21T12:20:44;154641.16;;;17.01;59.28
51287;BME280;37364;46.974;18.916;2023-03-21T12:23:31;154811.56;;;17.68;58.00
51287;BME280;37364;46.974;18.916;2023-03-21T12:26:13;155002.88;;;18.44;57.26
51287;BME280;37364;46.974;18.916;2023-03-21T12:29:09;154982.06;;;18.35;53.08
51287;BME280;37364;46.974;18.916;2023-03-21T12:31:52;155001.59;;;18.43;53.33
51287;BME280;37364;46.974;18.916;2023-03-21T12:34:43;155044.50;;;18.60;51.79
51287;BME280;37364;46.974;18.916;2023-03-21T12:37:20;154967.75;;;18.30;51.02
51287;BME280;37364;46.974;18.916;2023-03-21T12:39:58;155002.88;;;18.44;51.80
51287;BME280;37364;46.974;18.916;2023-03-21T12:42:48;154824.56;;;17.73;52.19
51287;BME280;37364;46.974;18.916;2023-03-21T12:45:24;154621.66;;;16.93;52.17
51287;BME280;37364;46.974;18.916;2023-03-21T12:48:18;154707.50;;;17.27;55.58
51287;BME280;37364;46.974;18.916;2023-03-21T12:50:53;154859.72;;;17.87;51.67
51287;BME280;37364;46.974;18.916;2023-03-21T12:53:38;154931.31;;;18.15;53.61
51287;BME280;37364;46.974;18.916;2023-03-21T12:56:15;154816.78;;;17.70;50.67
51287;BME280;37364;46.974;18.916;2023-03-21T12:58:53;154781.66;;;17.56;50.29
51287;BME280;37364;46.974;18.916;2023-03-21T13:01:29;154768.63;;;17.51;50.81
51287;BME280;37364;46.974;18.916;2023-03-21T13:07:01;154820.66;;;17.72;49.81
51287;BME280;37364;46.974;18.916;2023-03-21T13:09:34;154903.97;;;18.05;49.89
51287;BME280;37364;46.974;18.916;2023-03-21T13:12:16;154961.25;;;18.27;51.39
51287;BME280;37364;46.974;18.916;2023-03-21T13:14:59;155040.66;;;18.58;51.43
51287;BME280;37364;46.974;18.916;2023-03-21T13:17:48;154986.00;;;18.37;49.90
51287;BME280;37364;46.974;18.916;2023-03-21T13:20:25;154871.47;;;17.92;49.56
51287;BME280;37364;46.974;18.916;2023-03-21T13:23:01;154889.66;;;17.99;49.83
51287;BME280;37364;46.974;18.916;2023-03-21T13:25:35;154944.31;;;18.21;52.05
51287;BME280;37364;46.974;18.916;2023-03-21T13:28:18;154956.06;;;18.25;50.42
51287;BME280;37364;46.974;18.916;2023-03-21T13:30:49;154986.00;;;18.37;50.78